createdAt,value
2022-11-05T00:01:09.382Z,73.68
2022-11-05T00:02:24.244Z,74.09
2022-11-05T00:03:39.290Z,73.88
2022-11-05T00:04:54.274Z,74.14
2022-11-05T00:06:12.003Z,73.98
2022-11-05T00:07:34.427Z,74.94
2022-11-05T00:08:49.918Z,75.37
2022-11-05T00:09:47.207Z,74.88
2022-11-05T00:10:43.853Z,74.89
2022-11-05T00:12:00.689Z,75.07
2022-11-05T00:13:17.957Z,75.51
2022-11-05T00:14:33.264Z,76.46
2022-11-05T00:15:48.409Z,76.21
2022-11-05T00:16:45.027Z,76.98
2022-11-05T00:17:41.808Z,76.47
2022-11-05T00:18:38.547Z,76.11
2022-11-05T00:19:35.094Z,76.15
2022-11-05T00:20:31.689Z,75.75
2022-11-05T00:21:46.611Z,75.64
2022-11-05T00:23:01.291Z,75.73
2022-11-05T00:24:19.252Z,75.53
2022-11-05T00:25:22.127Z,75.49
2022-11-05T00:26:18.693Z,74.80
2022-11-05T00:27:15.250Z,74.21
2022-11-05T00:28:11.778Z,73.19
2022-11-05T00:29:08.366Z,73.16
2022-11-05T00:30:05.599Z,73.23
2022-11-05T00:31:09.826Z,73.39
2022-11-05T00:32:06.571Z,72.64
2022-11-05T00:33:03.597Z,73.43
2022-11-05T00:34:00.193Z,74.26
2022-11-05T00:34:56.761Z,73.93
2022-11-05T00:35:53.366Z,73.85
2022-11-05T00:36:49.944Z,73.57
2022-11-05T00:37:50.034Z,72.91
2022-11-05T00:38:47.181Z,73.33
2022-11-05T00:39:43.737Z,73.77
2022-11-05T00:40:40.350Z,73.46
2022-11-05T00:41:36.898Z,74.80
2022-11-05T00:42:52.013Z,74.43
2022-11-05T00:44:07.146Z,74.22
2022-11-05T00:45:05.685Z,73.76
2022-11-05T00:46:02.340Z,73.75
2022-11-05T00:47:18.860Z,74.34
2022-11-05T00:48:33.857Z,75.14
2022-11-05T00:49:30.416Z,74.49
2022-11-05T00:50:27.631Z,74.80
2022-11-05T00:51:24.183Z,74.08
2022-11-05T00:52:39.210Z,73.38
2022-11-05T00:53:35.990Z,73.14
2022-11-05T00:54:32.585Z,72.82
2022-11-05T00:55:38.490Z,72.57
2022-11-05T00:56:35.029Z,72.21
2022-11-05T00:57:31.640Z,72.88
2022-11-05T00:58:29.289Z,71.93
2022-11-05T00:59:25.850Z,71.46
2022-11-05T01:00:23.959Z,71.79
2022-11-05T01:01:20.611Z,72.18
2022-11-05T01:02:17.423Z,71.67
2022-11-05T01:03:16.398Z,72.24
2022-11-05T01:04:12.983Z,72.70
2022-11-05T01:05:09.556Z,72.32
2022-11-05T01:06:17.236Z,72.63
2022-11-05T01:07:13.776Z,72.58
2022-11-05T01:08:11.726Z,72.20
2022-11-05T01:09:08.337Z,72.13
2022-11-05T01:10:05.445Z,72.41
2022-11-05T01:11:09.665Z,72.94
2022-11-05T01:12:06.425Z,73.47
2022-11-05T01:13:03.013Z,73.92
2022-11-05T01:14:02.597Z,74.19
2022-11-05T01:14:59.426Z,74.70
2022-11-05T01:15:56.996Z,74.83
2022-11-05T01:16:53.591Z,74.12
2022-11-05T01:17:52.282Z,74.83
2022-11-05T01:18:48.885Z,74.51
2022-11-05T01:19:45.443Z,74.71
2022-11-05T01:20:42.121Z,74.87
2022-11-05T01:21:38.890Z,74.68
2022-11-05T01:22:35.536Z,74.97
2022-11-05T01:23:32.070Z,74.70
2022-11-05T01:24:28.646Z,74.62
2022-11-05T01:25:25.225Z,74.78
2022-11-05T01:26:21.976Z,74.68
2022-11-05T01:27:18.689Z,74.23
2022-11-05T01:28:15.356Z,74.29
2022-11-05T01:29:12.063Z,74.60
2022-11-05T01:30:09.355Z,74.61
2022-11-05T01:31:06.055Z,74.79
2022-11-05T01:32:02.587Z,74.30
2022-11-05T01:32:59.242Z,74.23
2022-11-05T01:33:55.791Z,74.30
2022-11-05T01:34:52.353Z,74.62
2022-11-05T01:35:51.710Z,74.93
2022-11-05T01:36:48.288Z,74.09
2022-11-05T01:37:44.947Z,73.57
2022-11-05T01:38:41.579Z,73.96
2022-11-05T01:39:38.117Z,74.46
2022-11-05T01:40:34.743Z,74.57
2022-11-05T01:41:31.346Z,75.08
2022-11-05T01:42:28.638Z,74.38
2022-11-05T01:43:25.428Z,74.39
2022-11-05T01:44:57.410Z,74.77
2022-11-05T01:45:58.618Z,73.14
2022-11-05T01:46:55.278Z,72.88
2022-11-05T01:48:08.151Z,72.67
2022-11-05T01:49:14.194Z,72.33
2022-11-05T01:50:44.762Z,72.40
2022-11-05T01:51:43.771Z,73.22
2022-11-05T01:52:40.530Z,73.38
2022-11-05T01:53:42.528Z,73.71
2022-11-05T01:54:39.103Z,73.46
2022-11-05T01:55:41.110Z,73.46
2022-11-05T01:56:45.964Z,72.85
2022-11-05T01:57:42.573Z,73.40
2022-11-05T01:59:02.089Z,73.01
2022-11-05T02:00:01.391Z,74.04
2022-11-05T02:00:57.984Z,74.44
2022-11-05T02:01:55.096Z,74.45
2022-11-05T02:02:51.868Z,75.10
2022-11-05T02:03:50.632Z,75.94
2022-11-05T02:04:56.725Z,75.73
2022-11-05T02:05:55.433Z,75.49
2022-11-05T02:06:53.170Z,74.75
2022-11-05T02:07:50.180Z,74.34
2022-11-05T02:09:07.817Z,75.19
2022-11-05T02:10:06.166Z,75.11
2022-11-05T02:11:03.993Z,74.26
2022-11-05T02:12:00.849Z,73.50
2022-11-05T02:12:57.544Z,73.32
2022-11-05T02:13:54.468Z,74.34
2022-11-05T02:14:51.177Z,74.36
2022-11-05T02:16:07.856Z,75.42
2022-11-05T02:17:13.542Z,75.46
2022-11-05T02:18:26.837Z,75.87
2022-11-05T02:19:44.405Z,75.14
2022-11-05T02:20:58.033Z,74.77
2022-11-05T02:22:21.904Z,73.91
2022-11-05T02:24:01.386Z,74.38
2022-11-05T02:25:19.502Z,74.79
2022-11-05T02:26:36.551Z,75.63
2022-11-05T02:27:43.282Z,75.77
2022-11-05T02:29:08.421Z,76.41
2022-11-05T02:30:07.425Z,76.19
2022-11-05T02:31:31.160Z,76.60
2022-11-05T02:32:35.554Z,76.86
2022-11-05T02:33:57.130Z,76.68
2022-11-05T02:35:22.657Z,76.84
2022-11-05T02:37:02.857Z,76.96
2022-11-05T02:38:13.243Z,75.50
2022-11-05T02:39:09.899Z,74.32
2022-11-05T02:40:19.126Z,74.33
2022-11-05T02:41:41.154Z,73.62
2022-11-05T02:42:44.466Z,72.43
2022-11-05T02:43:59.816Z,73.00
2022-11-05T02:45:11.183Z,73.97
2022-11-05T02:46:13.419Z,75.02
2022-11-05T02:47:22.041Z,76.04
2022-11-05T02:48:39.188Z,76.68
2022-11-05T02:49:54.089Z,76.92
2022-11-05T02:50:58.133Z,76.78
2022-11-05T02:52:01.316Z,76.70
2022-11-05T02:53:42.482Z,76.73
2022-11-05T02:54:42.061Z,76.15
2022-11-05T02:56:01.088Z,75.70
2022-11-05T02:57:00.434Z,75.54
2022-11-05T02:57:59.790Z,74.93
2022-11-05T02:58:56.373Z,74.34
2022-11-05T03:00:42.092Z,74.69
2022-11-05T03:01:41.353Z,74.25
2022-11-05T03:02:38.281Z,73.50
2022-11-05T03:03:48.498Z,73.12
2022-11-05T03:04:45.134Z,73.62
2022-11-05T03:05:55.604Z,74.27
2022-11-05T03:07:38.014Z,74.68
2022-11-05T03:08:58.681Z,74.92
2022-11-05T03:09:58.177Z,74.57
2022-11-05T03:11:17.649Z,74.92
2022-11-05T03:12:35.599Z,75.30
2022-11-05T03:14:03.825Z,75.71
2022-11-05T03:15:39.618Z,75.95
2022-11-05T03:16:41.678Z,75.56
2022-11-05T03:17:44.011Z,75.31
2022-11-05T03:18:47.867Z,75.35
2022-11-05T03:20:01.855Z,75.36
2022-11-05T03:21:01.475Z,75.93
2022-11-05T03:22:04.315Z,77.18
2022-11-05T03:23:03.674Z,76.78
2022-11-05T03:24:11.578Z,76.30
2022-11-05T03:25:16.041Z,75.84
2022-11-05T03:26:24.462Z,75.84
2022-11-05T03:27:29.181Z,75.89
2022-11-05T03:28:29.663Z,75.93
2022-11-05T03:29:33.130Z,75.96
2022-11-05T03:30:32.386Z,75.52
2022-11-05T03:31:30.966Z,75.52
2022-11-05T03:32:31.723Z,75.74
2022-11-05T03:33:31.705Z,76.54
2022-11-05T03:34:34.749Z,75.81
2022-11-05T03:35:40.068Z,76.63
2022-11-05T03:36:42.513Z,76.41
2022-11-05T03:37:40.832Z,75.80
2022-11-05T03:38:41.686Z,75.60
2022-11-05T03:39:43.645Z,75.36
2022-11-05T03:40:42.761Z,76.20
2022-11-05T03:41:43.372Z,75.36
2022-11-05T03:42:46.373Z,75.53
2022-11-05T03:43:48.178Z,75.48
2022-11-05T03:44:49.502Z,76.21
2022-11-05T03:45:56.146Z,75.62
2022-11-05T03:46:56.931Z,76.15
2022-11-05T03:47:57.475Z,76.46
2022-11-05T03:48:57.745Z,76.40
2022-11-05T03:50:00.267Z,76.38
2022-11-05T03:51:02.690Z,76.98
2022-11-05T03:52:06.295Z,76.32
2022-11-05T03:53:15.332Z,75.76
2022-11-05T03:54:12.921Z,75.33
2022-11-05T03:55:10.427Z,74.48
2022-11-05T03:56:12.965Z,75.06
2022-11-05T03:57:09.384Z,75.45
2022-11-05T03:58:06.332Z,75.67
2022-11-05T03:59:05.024Z,75.83
2022-11-05T04:00:01.716Z,75.68
2022-11-05T04:01:02.217Z,75.10
2022-11-05T04:01:58.876Z,75.09
2022-11-05T04:02:55.937Z,74.88
2022-11-05T04:03:52.553Z,75.41
2022-11-05T04:04:49.193Z,76.12
2022-11-05T04:06:05.977Z,75.87
2022-11-05T04:07:21.450Z,75.56
2022-11-05T04:08:36.600Z,74.73
2022-11-05T04:09:51.402Z,74.56
2022-11-05T04:11:06.261Z,75.28
2022-11-05T04:12:21.675Z,75.63
2022-11-05T04:13:24.213Z,75.73
2022-11-05T04:14:20.823Z,76.34
2022-11-05T04:15:17.497Z,76.16
2022-11-05T04:16:32.627Z,76.22
2022-11-05T04:17:29.293Z,75.90
2022-11-05T04:18:26.037Z,76.19
2022-11-05T04:19:40.888Z,76.10
2022-11-05T04:20:56.091Z,76.04
2022-11-05T04:22:11.282Z,75.49
2022-11-05T04:23:26.280Z,75.33
2022-11-05T04:24:22.830Z,74.51
2022-11-05T04:25:20.715Z,75.30
2022-11-05T04:26:17.295Z,75.06
2022-11-05T04:27:13.877Z,75.91
2022-11-05T04:28:10.579Z,76.16
2022-11-05T04:29:26.210Z,76.39
2022-11-05T04:30:23.046Z,76.61
2022-11-05T04:31:19.577Z,76.19
2022-11-05T04:32:16.129Z,76.55
2022-11-05T04:33:17.303Z,75.96
2022-11-05T04:34:14.533Z,75.52
2022-11-05T04:35:11.103Z,75.93
2022-11-05T04:36:07.911Z,76.86
2022-11-05T04:37:04.453Z,77.26
2022-11-05T04:38:01.996Z,77.11
2022-11-05T04:38:58.553Z,76.76
2022-11-05T04:39:55.153Z,76.90
2022-11-05T04:40:51.747Z,77.15
2022-11-05T04:41:48.842Z,78.02
2022-11-05T04:42:45.448Z,77.90
2022-11-05T04:43:42.363Z,77.61
2022-11-05T04:44:38.910Z,77.56
2022-11-05T04:45:36.062Z,77.91
2022-11-05T04:46:32.655Z,77.96
2022-11-05T04:47:29.197Z,78.37
2022-11-05T04:48:25.801Z,78.41
2022-11-05T04:49:22.356Z,78.60
2022-11-05T04:50:19.086Z,78.85
2022-11-05T04:51:15.725Z,79.12
2022-11-05T04:52:12.287Z,79.38
2022-11-05T04:53:09.028Z,79.60
2022-11-05T04:54:05.980Z,79.57
2022-11-05T04:55:02.598Z,79.85
2022-11-05T04:56:22.289Z,79.27
2022-11-05T04:57:18.871Z,79.12
2022-11-05T04:58:15.431Z,79.30
2022-11-05T04:59:12.009Z,79.11
2022-11-05T05:00:09.404Z,79.38
2022-11-05T05:01:06.060Z,79.39
2022-11-05T05:02:02.819Z,79.78
2022-11-05T05:02:59.447Z,79.44
2022-11-05T05:03:56.176Z,79.61
2022-11-05T05:04:52.773Z,79.86
2022-11-05T05:05:52.892Z,79.88
2022-11-05T05:06:50.337Z,80.40
2022-11-05T05:07:47.018Z,80.19
2022-11-05T05:08:43.687Z,79.77
2022-11-05T05:09:40.290Z,79.41
2022-11-05T05:10:36.884Z,79.05
2022-11-05T05:11:33.600Z,78.12
2022-11-05T05:12:30.180Z,78.26
2022-11-05T05:13:27.091Z,78.40
2022-11-05T05:14:23.662Z,78.54
2022-11-05T05:15:20.246Z,78.18
2022-11-05T05:16:21.278Z,77.88
2022-11-05T05:17:17.854Z,78.37
2022-11-05T05:18:14.434Z,78.22
2022-11-05T05:19:10.992Z,79.10
2022-11-05T05:20:26.375Z,78.48
2022-11-05T05:21:42.252Z,78.22
2022-11-05T05:22:38.834Z,78.20
2022-11-05T05:23:35.386Z,77.82
2022-11-05T05:24:32.018Z,77.11
2022-11-05T05:25:28.606Z,76.36
2022-11-05T05:26:25.190Z,76.11
2022-11-05T05:27:22.878Z,76.39
2022-11-05T05:28:19.434Z,76.37
2022-11-05T05:29:16.582Z,76.44
2022-11-05T05:30:13.381Z,76.40
2022-11-05T05:31:09.928Z,76.41
2022-11-05T05:32:07.022Z,75.83
2022-11-05T05:33:04.650Z,75.50
2022-11-05T05:34:01.489Z,75.08
2022-11-05T05:34:58.030Z,74.80
2022-11-05T05:35:58.069Z,75.58
2022-11-05T05:36:54.787Z,75.65
2022-11-05T05:37:55.664Z,76.00
2022-11-05T05:38:52.567Z,75.90
2022-11-05T05:39:49.830Z,75.62
2022-11-05T05:40:46.399Z,75.60
2022-11-05T05:41:42.936Z,75.90
2022-11-05T05:42:43.052Z,76.03
2022-11-05T05:43:39.892Z,75.56
2022-11-05T05:44:36.790Z,74.86
2022-11-05T05:45:35.622Z,74.26
2022-11-05T05:46:32.174Z,74.88
2022-11-05T05:47:28.752Z,74.26
2022-11-05T05:48:25.392Z,74.70
2022-11-05T05:49:21.978Z,74.75
2022-11-05T05:50:18.554Z,74.11
2022-11-05T05:51:15.123Z,74.18
2022-11-05T05:52:11.762Z,74.48
2022-11-05T05:53:09.076Z,73.66
2022-11-05T05:54:05.873Z,72.69
2022-11-05T05:55:02.433Z,72.15
2022-11-05T05:55:59.473Z,72.90
2022-11-05T05:56:56.201Z,73.40
2022-11-05T05:57:53.858Z,73.59
2022-11-05T05:58:50.475Z,73.96
2022-11-05T05:59:47.131Z,73.98
2022-11-05T06:00:43.785Z,73.23
2022-11-05T06:01:40.639Z,72.72
2022-11-05T06:02:37.520Z,73.00
2022-11-05T06:03:34.494Z,72.76
2022-11-05T06:04:31.102Z,73.22
2022-11-05T06:05:27.710Z,73.07
2022-11-05T06:06:24.268Z,71.88
2022-11-05T06:07:20.789Z,71.93
2022-11-05T06:08:17.392Z,71.96
2022-11-05T06:09:14.801Z,72.04
2022-11-05T06:10:11.476Z,72.49
2022-11-05T06:11:08.950Z,71.86
2022-11-05T06:12:05.856Z,72.17
2022-11-05T06:13:02.743Z,72.09
2022-11-05T06:13:59.390Z,72.37
2022-11-05T06:14:55.976Z,71.61
2022-11-05T06:15:52.790Z,71.36
2022-11-05T06:16:49.420Z,71.15
2022-11-05T06:17:46.475Z,71.34
2022-11-05T06:18:43.047Z,71.46
2022-11-05T06:19:39.631Z,70.32
2022-11-05T06:20:36.161Z,69.97
2022-11-05T06:21:33.089Z,70.10
2022-11-05T06:22:29.621Z,70.33
2022-11-05T06:23:26.197Z,70.01
2022-11-05T06:24:22.734Z,70.28
2022-11-05T06:25:19.273Z,70.41
2022-11-05T06:33:29.809Z,70.57
2022-11-05T06:34:26.349Z,68.99
2022-11-05T06:35:22.995Z,68.98
2022-11-05T06:36:20.467Z,68.39
2022-11-05T06:37:17.028Z,68.60
2022-11-05T06:38:13.738Z,67.95
2022-11-05T06:39:11.795Z,68.75
2022-11-05T06:40:09.292Z,68.10
2022-11-05T06:41:10.317Z,68.93
2022-11-05T06:42:22.583Z,68.95
2022-11-05T06:43:19.179Z,69.08
2022-11-05T06:44:15.769Z,69.52
2022-11-05T06:45:12.293Z,69.76
2022-11-05T06:46:10.589Z,69.70
2022-11-05T06:47:07.242Z,69.57
2022-11-05T06:48:03.980Z,70.02
2022-11-05T06:49:00.692Z,69.72
2022-11-05T06:49:57.500Z,69.72
2022-11-05T06:50:54.299Z,70.12
2022-11-05T06:51:51.937Z,69.83
2022-11-05T06:52:59.357Z,70.11
2022-11-05T06:53:55.930Z,70.31
2022-11-05T06:54:52.491Z,70.81
2022-11-05T06:55:49.073Z,71.19
2022-11-05T06:56:45.679Z,70.57
2022-11-05T06:57:42.248Z,70.44
2022-11-05T06:58:38.847Z,70.12
2022-11-05T06:59:36.311Z,69.52
2022-11-05T07:00:32.927Z,70.18
2022-11-05T07:01:29.743Z,70.02
2022-11-05T07:02:26.437Z,69.69
2022-11-05T07:03:23.035Z,70.07
2022-11-05T07:04:19.578Z,70.42
2022-11-05T07:05:17.082Z,70.26
2022-11-05T07:06:13.706Z,70.13
2022-11-05T07:07:10.554Z,69.54
2022-11-05T07:08:07.270Z,69.03
2022-11-05T07:09:04.408Z,67.72
2022-11-05T07:10:00.972Z,68.46
2022-11-05T07:10:57.572Z,68.31
2022-11-05T07:11:54.697Z,67.77
2022-11-05T07:12:51.645Z,68.01
2022-11-05T07:13:48.283Z,68.95
2022-11-05T07:14:44.877Z,69.19
2022-11-05T07:15:41.566Z,68.04
2022-11-05T07:16:38.170Z,68.17
2022-11-05T07:17:34.729Z,67.96
2022-11-05T07:18:31.358Z,68.14
2022-11-05T07:19:27.944Z,68.14
2022-11-05T07:20:28.227Z,67.64
2022-11-05T07:21:29.171Z,67.85
2022-11-05T07:22:25.708Z,67.30
2022-11-05T07:23:22.295Z,67.65
2022-11-05T07:24:18.838Z,67.56
2022-11-05T07:25:15.397Z,67.19
2022-11-05T07:26:11.998Z,67.00
2022-11-05T07:27:08.578Z,66.71
2022-11-05T07:28:05.506Z,66.78
2022-11-05T07:29:02.204Z,66.12
2022-11-05T07:29:58.755Z,65.92
2022-11-05T07:30:55.408Z,65.25
2022-11-05T07:31:52.005Z,66.16
2022-11-05T07:32:48.637Z,65.34
2022-11-05T07:33:45.215Z,65.67
2022-11-05T07:34:41.765Z,64.60
2022-11-05T07:35:38.371Z,64.02
2022-11-05T07:36:34.995Z,62.97
2022-11-05T07:37:31.571Z,63.50
2022-11-05T07:38:28.215Z,63.84
2022-11-05T07:39:24.829Z,63.79
2022-11-05T07:40:23.493Z,64.17
2022-11-05T07:41:20.133Z,64.02
2022-11-05T07:42:16.858Z,64.46
2022-11-05T07:43:13.768Z,63.88
2022-11-05T07:44:11.715Z,63.15
2022-11-05T07:45:08.813Z,63.24
2022-11-05T07:46:07.585Z,64.05
2022-11-05T07:47:08.082Z,63.95
2022-11-05T07:48:05.466Z,63.91
2022-11-05T07:49:02.289Z,64.23
2022-11-05T07:49:58.878Z,64.13
2022-11-05T07:50:55.473Z,64.63
2022-11-05T07:51:52.058Z,63.95
2022-11-05T07:52:49.311Z,63.65
2022-11-05T07:53:48.184Z,62.31
2022-11-05T07:54:44.786Z,62.32
2022-11-05T07:55:42.220Z,61.89
2022-11-05T07:56:38.852Z,62.45
2022-11-05T07:57:48.998Z,61.96
2022-11-05T07:58:45.573Z,61.98
2022-11-05T07:59:42.134Z,61.79
2022-11-05T08:00:39.157Z,61.05
2022-11-05T08:01:35.957Z,61.03
2022-11-05T08:02:32.835Z,60.86
2022-11-05T08:03:29.734Z,61.03
2022-11-05T08:04:26.438Z,59.88
2022-11-05T08:05:23.132Z,58.79
2022-11-05T08:06:19.720Z,58.66
2022-11-05T08:07:16.238Z,57.78
2022-11-05T08:08:17.875Z,57.86
2022-11-05T08:09:14.423Z,57.82
2022-11-05T08:10:10.973Z,57.18
2022-11-05T08:11:09.846Z,56.98
2022-11-05T08:12:06.918Z,54.99
2022-11-05T08:13:04.810Z,55.37
2022-11-05T08:14:01.444Z,56.75
2022-11-05T08:14:58.061Z,56.95
2022-11-05T08:15:57.489Z,55.81
2022-11-05T08:16:54.042Z,55.56
2022-11-05T08:17:50.861Z,55.67
2022-11-05T08:18:48.346Z,55.64
2022-11-05T08:19:44.893Z,55.06
2022-11-05T08:20:43.132Z,54.83
2022-11-05T08:21:39.679Z,55.56
2022-11-05T08:22:36.318Z,55.63
2022-11-05T08:23:33.535Z,54.11
2022-11-05T08:24:30.115Z,54.24
2022-11-05T08:25:27.231Z,53.88
2022-11-05T08:26:23.822Z,53.67
2022-11-05T08:27:20.402Z,52.16
2022-11-05T08:28:17.082Z,52.00
2022-11-05T08:29:13.657Z,52.80
2022-11-05T08:30:10.707Z,51.44
2022-11-05T08:31:07.318Z,51.11
2022-11-05T08:32:03.922Z,51.58
2022-11-05T08:33:06.884Z,52.27
2022-11-05T08:34:03.466Z,51.50
2022-11-05T08:35:00.020Z,50.63
2022-11-05T08:35:57.024Z,49.59
2022-11-05T08:36:53.592Z,49.47
2022-11-05T08:37:50.156Z,50.35
2022-11-05T08:38:46.703Z,50.35
2022-11-05T08:39:43.253Z,50.99
2022-11-05T08:40:40.623Z,51.19
2022-11-05T08:41:37.182Z,50.23
2022-11-05T08:42:33.761Z,50.15
2022-11-05T08:43:30.373Z,50.33
2022-11-05T08:44:26.974Z,49.83
2022-11-05T08:45:26.061Z,49.63
2022-11-05T08:46:22.824Z,49.21
2022-11-05T08:47:19.445Z,48.93
2022-11-05T08:48:18.173Z,48.87
2022-11-05T08:49:14.797Z,47.62
2022-11-05T08:50:11.343Z,48.05
2022-11-05T08:51:07.996Z,48.80
2022-11-05T08:52:04.780Z,48.36
2022-11-05T08:53:01.703Z,48.94
2022-11-05T08:53:58.314Z,49.34
2022-11-05T08:54:55.255Z,49.38
2022-11-05T08:55:51.876Z,48.97
2022-11-05T08:56:48.438Z,49.23
2022-11-05T08:57:48.294Z,49.20
2022-11-05T08:58:44.951Z,49.06
2022-11-05T08:59:41.492Z,48.81
2022-11-05T09:00:39.048Z,48.43
2022-11-05T09:01:35.857Z,48.55
2022-11-05T09:02:32.632Z,48.69
2022-11-05T09:03:29.303Z,48.49
2022-11-05T09:04:28.650Z,47.77
2022-11-05T09:05:25.215Z,47.75
2022-11-05T09:06:22.023Z,46.88
2022-11-05T09:07:18.698Z,47.02
2022-11-05T09:08:18.049Z,46.38
2022-11-05T09:09:14.611Z,46.99
2022-11-05T09:10:11.190Z,47.40
2022-11-05T09:11:07.806Z,47.52
2022-11-05T09:12:13.096Z,47.91
2022-11-05T09:13:16.486Z,47.79
2022-11-05T09:14:14.675Z,47.31
2022-11-05T09:15:11.785Z,47.19
2022-11-05T09:16:19.135Z,47.28
2022-11-05T09:17:18.816Z,47.95
2022-11-05T09:18:16.348Z,49.04
2022-11-05T09:19:12.977Z,49.52
2022-11-05T09:20:11.477Z,49.24
2022-11-05T09:21:08.269Z,48.62
2022-11-05T09:22:04.908Z,49.24
2022-11-05T09:23:01.538Z,49.30
2022-11-05T09:23:58.109Z,50.20
2022-11-05T09:24:54.715Z,49.75
2022-11-05T09:25:51.289Z,49.93
2022-11-05T09:26:48.062Z,49.58
2022-11-05T09:27:44.790Z,49.40
2022-11-05T09:28:43.315Z,49.27
2022-11-05T09:29:42.779Z,50.01
2022-11-05T09:30:41.498Z,50.54
2022-11-05T09:31:38.040Z,50.07
2022-11-05T09:32:34.584Z,50.64
2022-11-05T09:33:31.139Z,51.09
2022-11-05T09:34:28.092Z,51.07
2022-11-05T09:35:24.688Z,50.73
2022-11-05T09:36:21.254Z,49.71
2022-11-05T09:37:17.810Z,50.27
2022-11-05T09:38:14.697Z,50.13
2022-11-05T09:39:11.275Z,50.06
2022-11-05T09:40:08.160Z,49.47
2022-11-05T09:41:07.833Z,49.66
2022-11-05T09:42:07.727Z,50.34
2022-11-05T09:43:06.654Z,49.83
2022-11-05T09:44:10.429Z,49.63
2022-11-05T09:45:15.780Z,50.47
2022-11-05T09:46:28.860Z,50.13
2022-11-05T09:47:35.004Z,48.98
2022-11-05T09:48:32.880Z,48.66
2022-11-05T09:49:40.047Z,48.23
2022-11-05T09:50:44.364Z,48.62
2022-11-05T09:51:41.320Z,48.68
2022-11-05T09:52:38.551Z,48.40
2022-11-05T09:53:40.199Z,49.26
2022-11-05T09:54:37.922Z,49.16
2022-11-05T09:55:41.427Z,49.55
2022-11-05T09:56:40.924Z,49.15
2022-11-05T09:57:49.001Z,49.63
2022-11-05T09:58:51.755Z,50.07
2022-11-05T09:59:57.861Z,49.91
2022-11-05T10:00:54.727Z,48.90
2022-11-05T10:01:56.432Z,49.56
2022-11-05T10:02:57.336Z,48.71
2022-11-05T10:03:58.367Z,48.45
2022-11-05T10:05:04.879Z,48.75
2022-11-05T10:06:09.343Z,48.15
2022-11-05T10:07:11.646Z,48.67
2022-11-05T10:08:17.743Z,48.65
2022-11-05T10:09:26.706Z,48.17
2022-11-05T10:10:30.610Z,47.71
2022-11-05T10:11:37.957Z,48.20
2022-11-05T10:12:34.453Z,48.44
2022-11-05T10:14:01.246Z,49.13
2022-11-05T10:15:13.484Z,49.18
2022-11-05T10:16:25.263Z,49.71
2022-11-05T10:17:26.635Z,48.86
2022-11-05T10:18:32.656Z,48.65
2022-11-05T10:19:47.265Z,48.25
2022-11-05T10:20:45.025Z,48.56
2022-11-05T10:22:05.435Z,49.39
2022-11-05T10:23:08.888Z,48.66
2022-11-05T10:24:20.175Z,48.57
2022-11-05T10:25:22.096Z,48.96
2022-11-05T10:26:21.869Z,49.06
2022-11-05T10:27:23.578Z,49.59
2022-11-05T10:28:26.238Z,49.38
2022-11-05T10:29:29.299Z,49.56
2022-11-05T10:30:26.086Z,49.71
2022-11-05T10:31:23.649Z,49.63
2022-11-05T10:32:40.356Z,49.09
2022-11-05T10:33:50.098Z,48.72
2022-11-05T10:34:47.132Z,49.04
2022-11-05T10:35:51.210Z,48.73
2022-11-05T10:36:48.458Z,48.86
2022-11-05T10:37:46.767Z,48.93
2022-11-05T10:38:43.419Z,49.29
2022-11-05T10:39:39.979Z,48.62
2022-11-05T10:40:55.367Z,48.68
2022-11-05T10:42:00.956Z,48.85
2022-11-05T10:43:21.799Z,49.02
2022-11-05T10:44:52.477Z,49.19
2022-11-05T10:45:55.389Z,48.99
2022-11-05T10:46:57.917Z,48.53
2022-11-05T10:48:00.420Z,48.44
2022-11-05T10:49:24.779Z,48.48
2022-11-05T10:50:29.862Z,48.80
2022-11-05T10:51:26.827Z,48.83
2022-11-05T10:52:35.955Z,49.00
2022-11-05T10:53:35.680Z,48.40
2022-11-05T10:54:35.228Z,48.84
2022-11-05T10:55:43.377Z,48.72
2022-11-05T10:56:41.261Z,49.10
2022-11-05T10:57:40.365Z,48.99
2022-11-05T10:58:40.237Z,49.10
2022-11-05T10:59:36.935Z,49.46
2022-11-05T11:00:33.625Z,49.36
2022-11-05T11:01:31.020Z,48.90
2022-11-05T11:02:30.453Z,48.73
2022-11-05T11:03:41.369Z,47.73
2022-11-05T11:04:38.397Z,47.60
2022-11-05T11:05:39.057Z,46.78
2022-11-05T11:06:39.111Z,46.94
2022-11-05T11:07:36.257Z,47.31
2022-11-05T11:08:35.700Z,47.37
2022-11-05T11:09:36.312Z,48.29
2022-11-05T11:10:47.984Z,48.42
2022-11-05T11:11:44.955Z,48.05
2022-11-05T11:12:43.642Z,47.61
2022-11-05T11:13:58.280Z,48.20
2022-11-05T11:15:04.510Z,48.22
2022-11-05T11:16:24.020Z,47.85
2022-11-05T11:17:27.885Z,46.91
2022-11-05T11:18:40.304Z,46.99
2022-11-05T11:19:37.143Z,46.80
2022-11-05T11:20:34.042Z,46.68
2022-11-05T11:21:32.791Z,46.95
2022-11-05T11:22:29.391Z,45.97
2022-11-05T11:23:26.028Z,45.82
2022-11-05T11:24:29.660Z,46.14
2022-11-05T11:25:41.526Z,45.71
2022-11-05T11:26:40.354Z,45.05
2022-11-05T11:27:37.865Z,45.73
2022-11-05T11:28:47.867Z,45.58
2022-11-05T11:30:00.828Z,45.00
2022-11-05T11:31:04.509Z,46.63
2022-11-05T11:32:01.221Z,46.69
2022-11-05T11:33:11.822Z,46.30
2022-11-05T11:34:14.465Z,45.56
2022-11-05T11:35:25.871Z,45.50
2022-11-05T11:36:32.233Z,45.02
2022-11-05T11:37:33.412Z,45.08
2022-11-05T11:38:33.070Z,45.26
2022-11-05T11:39:31.633Z,45.51
2022-11-05T11:40:37.964Z,45.68
2022-11-05T11:41:42.041Z,45.71
2022-11-05T11:42:41.417Z,45.41
2022-11-05T11:43:41.649Z,45.15
2022-11-05T11:44:44.687Z,44.54
2022-11-05T11:45:51.138Z,44.73
2022-11-05T11:46:53.321Z,45.50
2022-11-05T11:47:53.435Z,45.30
2022-11-05T11:48:50.197Z,45.27
2022-11-05T11:49:52.557Z,45.76
2022-11-05T11:50:50.177Z,45.33
2022-11-05T11:51:49.968Z,45.78
2022-11-05T11:52:46.922Z,45.33
2022-11-05T11:53:43.754Z,45.05
2022-11-05T11:54:40.361Z,45.08
2022-11-05T11:55:36.964Z,45.14
2022-11-05T11:56:44.653Z,45.52
2022-11-05T11:57:54.652Z,45.54
2022-11-05T11:58:56.137Z,45.81
2022-11-05T12:00:08.201Z,45.59
2022-11-05T12:01:24.671Z,45.77
2022-11-05T12:02:33.321Z,45.34
2022-11-05T12:03:42.803Z,45.78
2022-11-05T12:04:42.241Z,45.55
2022-11-05T12:06:07.123Z,45.87
2022-11-05T12:07:27.662Z,45.88
2022-11-05T12:08:44.381Z,45.64
2022-11-05T12:10:04.381Z,45.70
2022-11-05T12:11:08.560Z,46.17
2022-11-05T12:12:11.592Z,46.07
2022-11-05T12:13:23.150Z,46.45
2022-11-05T12:14:45.185Z,46.18
2022-11-05T12:16:03.557Z,46.88
2022-11-05T12:17:07.353Z,46.39
2022-11-05T12:18:07.533Z,46.66
2022-11-05T12:19:29.368Z,47.01
2022-11-05T12:20:38.308Z,47.06
2022-11-05T12:21:58.665Z,46.35
2022-11-05T12:23:22.800Z,46.96
2022-11-05T12:24:31.326Z,47.04
2022-11-05T12:25:48.992Z,47.79
2022-11-05T12:27:03.254Z,47.47
2022-11-05T12:28:23.086Z,47.28
2022-11-05T12:29:34.446Z,47.67
2022-11-05T12:30:47.451Z,47.61
2022-11-05T12:31:49.819Z,47.34
2022-11-05T12:32:58.556Z,46.93
2022-11-05T12:34:20.736Z,46.66
2022-11-05T12:35:53.329Z,47.32
2022-11-05T12:37:28.701Z,47.54
2022-11-05T12:38:44.109Z,47.57
2022-11-05T12:39:47.472Z,47.90
2022-11-05T12:41:02.460Z,47.54
2022-11-05T12:42:13.879Z,47.48
2022-11-05T12:43:31.236Z,47.90
2022-11-05T12:44:40.991Z,48.15
2022-11-05T12:45:40.446Z,48.47
2022-11-05T12:46:57.999Z,48.28
2022-11-05T12:48:01.495Z,47.97
2022-11-05T12:49:33.058Z,48.23
2022-11-05T12:50:38.366Z,47.69
2022-11-05T12:51:40.614Z,47.58
2022-11-05T12:52:58.704Z,48.55
2022-11-05T12:54:17.011Z,48.83
2022-11-05T12:55:22.247Z,48.62
2022-11-05T12:56:26.822Z,48.41
2022-11-05T12:57:23.609Z,48.24
2022-11-05T12:58:26.532Z,48.64
2022-11-05T13:00:09.151Z,48.07
2022-11-05T13:01:35.412Z,48.30
2022-11-05T13:02:47.302Z,48.62
2022-11-05T13:03:59.043Z,48.53
2022-11-05T13:05:04.130Z,48.06
2022-11-05T13:06:12.685Z,48.34
2022-11-05T13:07:14.942Z,48.30
2022-11-05T13:08:20.407Z,49.08
2022-11-05T13:09:23.706Z,49.15
2022-11-05T13:10:25.421Z,48.88
2022-11-05T13:11:34.801Z,49.08
2022-11-05T13:12:35.902Z,49.18
2022-11-05T13:13:39.777Z,49.40
2022-11-05T13:14:44.161Z,49.24
2022-11-05T13:15:49.629Z,49.22
2022-11-05T13:16:50.755Z,48.27
2022-11-05T13:17:59.887Z,48.19
2022-11-05T13:19:02.781Z,48.36
2022-11-05T13:20:03.773Z,48.92
2022-11-05T13:21:05.366Z,49.30
2022-11-05T13:22:15.899Z,49.46
2022-11-05T13:23:21.368Z,49.64
2022-11-05T13:24:23.694Z,49.81
2022-11-05T13:25:21.674Z,49.84
2022-11-05T13:26:26.878Z,49.74